sensor_id;sensor_type;location;lat;lon;timestamp;P1;durP1;ratioP1;P2;durP2;ratioP2
22754;SDS011;11544;42.020;23.094;2023-06-22T00:00:32;7.85;;;6.97;;
22754;SDS011;11544;42.020;23.094;2023-06-22T00:02:59;7.63;;;6.75;;
22754;SDS011;11544;42.020;23.094;2023-06-22T00:05:26;10.82;;;6.78;;
22754;SDS011;11544;42.020;23.094;2023-06-22T00:07:56;8.50;;;6.90;;
22754;SDS011;11544;42.020;23.094;2023-06-22T00:10:29;8.35;;;6.70;;
22754;SDS011;11544;42.020;23.094;2023-06-22T00:12:56;8.75;;;6.55;;
22754;SDS011;11544;42.020;23.094;2023-06-22T00:15:26;7.93;;;7.10;;
22754;SDS011;11544;42.020;23.094;2023-06-22T00:17:54;9.00;;;6.43;;
22754;SDS011;11544;42.020;23.094;2023-06-22T00:20:24;7.32;;;6.32;;
22754;SDS011;11544;42.020;23.094;2023-06-22T00:22:56;7.97;;;6.05;;
22754;SDS011;11544;42.020;23.094;2023-06-22T00:25:25;7.35;;;6.43;;
22754;SDS011;11544;42.020;23.094;2023-06-22T00:27:52;8.15;;;6.82;;
22754;SDS011;11544;42.020;23.094;2023-06-22T00:30:19;11.43;;;7.35;;
22754;SDS011;11544;42.020;23.094;2023-06-22T00:33:03;7.25;;;6.20;;
22754;SDS011;11544;42.020;23.094;2023-06-22T00:36:21;9.35;;;6.60;;
22754;SDS011;11544;42.020;23.094;2023-06-22T00:38:58;7.82;;;6.50;;
22754;SDS011;11544;42.020;23.094;2023-06-22T00:41:37;7.32;;;6.45;;
22754;SDS011;11544;42.020;23.094;2023-06-22T00:44:04;7.97;;;6.72;;
22754;SDS011;11544;42.020;23.094;2023-06-22T00:46:33;8.32;;;6.97;;
22754;SDS011;11544;42.020;23.094;2023-06-22T00:49:00;7.68;;;6.70;;
22754;SDS011;11544;42.020;23.094;2023-06-22T00:51:30;9.25;;;7.13;;
22754;SDS011;11544;42.020;23.094;2023-06-22T00:53:59;7.00;;;6.30;;
22754;SDS011;11544;42.020;23.094;2023-06-22T00:56:32;9.07;;;6.57;;
22754;SDS011;11544;42.020;23.094;2023-06-22T00:59:02;8.80;;;6.28;;
22754;SDS011;11544;42.020;23.094;2023-06-22T01:01:56;7.93;;;6.57;;
22754;SDS011;11544;42.020;23.094;2023-06-22T01:04:48;9.68;;;6.47;;
22754;SDS011;11544;42.020;23.094;2023-06-22T01:12:42;6.60;;;5.82;;
22754;SDS011;11544;42.020;23.094;2023-06-22T01:18:01;8.43;;;6.13;;
22754;SDS011;11544;42.020;23.094;2023-06-22T01:20:38;7.75;;;6.70;;
22754;SDS011;11544;42.020;23.094;2023-06-22T01:23:54;9.63;;;7.15;;
22754;SDS011;11544;42.020;23.094;2023-06-22T01:26:07;7.82;;;6.25;;
22754;SDS011;11544;42.020;23.094;2023-06-22T01:34:08;12.35;;;7.35;;
22754;SDS011;11544;42.020;23.094;2023-06-22T01:36:38;8.52;;;6.97;;
22754;SDS011;11544;42.020;23.094;2023-06-22T01:39:06;8.63;;;6.28;;
22754;SDS011;11544;42.020;23.094;2023-06-22T01:41:36;7.97;;;6.53;;
22754;SDS011;11544;42.020;23.094;2023-06-22T01:44:07;6.90;;;6.18;;
22754;SDS011;11544;42.020;23.094;2023-06-22T01:46:36;7.13;;;5.70;;
22754;SDS011;11544;42.020;23.094;2023-06-22T01:49:05;7.13;;;6.20;;
22754;SDS011;11544;42.020;23.094;2023-06-22T01:51:57;10.38;;;6.38;;
22754;SDS011;11544;42.020;23.094;2023-06-22T01:55:12;7.00;;;5.65;;
22754;SDS011;11544;42.020;23.094;2023-06-22T01:57:43;6.50;;;5.85;;
22754;SDS011;11544;42.020;23.094;2023-06-22T02:00:13;6.47;;;5.60;;
22754;SDS011;11544;42.020;23.094;2023-06-22T02:09:02;9.95;;;5.97;;
22754;SDS011;11544;42.020;23.094;2023-06-22T02:11:35;7.65;;;6.20;;
22754;SDS011;11544;42.020;23.094;2023-06-22T02:14:04;7.15;;;6.20;;
22754;SDS011;11544;42.020;23.094;2023-06-22T02:16:33;6.32;;;5.72;;
22754;SDS011;11544;42.020;23.094;2023-06-22T02:19:02;6.80;;;5.75;;
22754;SDS011;11544;42.020;23.094;2023-06-22T02:21:29;7.90;;;5.93;;
22754;SDS011;11544;42.020;23.094;2023-06-22T02:23:57;7.50;;;6.60;;
22754;SDS011;11544;42.020;23.094;2023-06-22T02:26:25;7.00;;;6.00;;
22754;SDS011;11544;42.020;23.094;2023-06-22T02:28:53;6.78;;;5.85;;
22754;SDS011;11544;42.020;23.094;2023-06-22T02:31:22;7.07;;;6.03;;
22754;SDS011;11544;42.020;23.094;2023-06-22T02:34:00;8.25;;;6.22;;
22754;SDS011;11544;42.020;23.094;2023-06-22T02:36:27;7.70;;;6.20;;
22754;SDS011;11544;42.020;23.094;2023-06-22T02:38:59;8.93;;;6.68;;
22754;SDS011;11544;42.020;23.094;2023-06-22T02:41:28;8.20;;;6.97;;
22754;SDS011;11544;42.020;23.094;2023-06-22T02:43:59;9.98;;;7.03;;
22754;SDS011;11544;42.020;23.094;2023-06-22T02:46:35;9.50;;;6.88;;
22754;SDS011;11544;42.020;23.094;2023-06-22T02:49:02;9.38;;;6.85;;
22754;SDS011;11544;42.020;23.094;2023-06-22T02:51:32;7.20;;;6.50;;
22754;SDS011;11544;42.020;23.094;2023-06-22T02:54:02;8.27;;;6.22;;
22754;SDS011;11544;42.020;23.094;2023-06-22T02:56:30;8.15;;;6.43;;
22754;SDS011;11544;42.020;23.094;2023-06-22T02:58:57;8.48;;;6.15;;
22754;SDS011;11544;42.020;23.094;2023-06-22T03:01:27;9.65;;;6.40;;
22754;SDS011;11544;42.020;23.094;2023-06-22T03:03:56;6.78;;;6.07;;
22754;SDS011;11544;42.020;23.094;2023-06-22T03:06:29;7.80;;;5.80;;
22754;SDS011;11544;42.020;23.094;2023-06-22T03:09:03;6.93;;;6.10;;
22754;SDS011;11544;42.020;23.094;2023-06-22T03:11:57;7.40;;;6.03;;
22754;SDS011;11544;42.020;23.094;2023-06-22T03:21:18;6.85;;;5.80;;
22754;SDS011;11544;42.020;23.094;2023-06-22T03:24:50;8.18;;;5.68;;
22754;SDS011;11544;42.020;23.094;2023-06-22T03:31:42;7.95;;;6.93;;
22754;SDS011;11544;42.020;23.094;2023-06-22T03:34:19;7.22;;;5.95;;
22754;SDS011;11544;42.020;23.094;2023-06-22T03:37:14;7.53;;;6.20;;
22754;SDS011;11544;42.020;23.094;2023-06-22T03:43:08;9.95;;;6.20;;
22754;SDS011;11544;42.020;23.094;2023-06-22T04:26:04;9.85;;;7.20;;
22754;SDS011;11544;42.020;23.094;2023-06-22T04:28:34;15.18;;;8.73;;
22754;SDS011;11544;42.020;23.094;2023-06-22T04:31:02;10.35;;;6.43;;
22754;SDS011;11544;42.020;23.094;2023-06-22T04:33:29;10.25;;;7.50;;
22754;SDS011;11544;42.020;23.094;2023-06-22T04:35:56;12.60;;;8.80;;
22754;SDS011;11544;42.020;23.094;2023-06-22T04:38:24;13.48;;;9.02;;
22754;SDS011;11544;42.020;23.094;2023-06-22T04:40:51;12.40;;;9.40;;
22754;SDS011;11544;42.020;23.094;2023-06-22T04:43:20;16.98;;;9.75;;
22754;SDS011;11544;42.020;23.094;2023-06-22T04:45:47;11.15;;;9.48;;
22754;SDS011;11544;42.020;23.094;2023-06-22T04:48:21;11.85;;;9.05;;
22754;SDS011;11544;42.020;23.094;2023-06-22T04:50:48;13.52;;;9.18;;
22754;SDS011;11544;42.020;23.094;2023-06-22T04:53:15;10.98;;;9.02;;
22754;SDS011;11544;42.020;23.094;2023-06-22T04:55:45;22.38;;;9.48;;
22754;SDS011;11544;42.020;23.094;2023-06-22T04:58:15;12.30;;;9.70;;
22754;SDS011;11544;42.020;23.094;2023-06-22T15:21:22;8.75;;;5.88;;
22754;SDS011;11544;42.020;23.094;2023-06-22T15:23:49;9.65;;;6.50;;
22754;SDS011;11544;42.020;23.094;2023-06-22T15:26:20;12.20;;;5.90;;
22754;SDS011;11544;42.020;23.094;2023-06-22T15:28:48;8.52;;;6.03;;
22754;SDS011;11544;42.020;23.094;2023-06-22T15:34:23;9.55;;;6.25;;
22754;SDS011;11544;42.020;23.094;2023-06-22T15:56:02;9.48;;;6.50;;
22754;SDS011;11544;42.020;23.094;2023-06-22T15:58:37;9.23;;;7.10;;
22754;SDS011;11544;42.020;23.094;2023-06-22T16:01:10;9.55;;;6.95;;
22754;SDS011;11544;42.020;23.094;2023-06-22T16:03:49;10.35;;;7.03;;
22754;SDS011;11544;42.020;23.094;2023-06-22T16:06:25;10.98;;;6.72;;
22754;SDS011;11544;42.020;23.094;2023-06-22T16:09:04;9.52;;;6.00;;
22754;SDS011;11544;42.020;23.094;2023-06-22T16:14:41;7.53;;;5.80;;
22754;SDS011;11544;42.020;23.094;2023-06-22T16:17:17;9.00;;;6.38;;
22754;SDS011;11544;42.020;23.094;2023-06-22T16:19:53;9.43;;;6.57;;
22754;SDS011;11544;42.020;23.094;2023-06-22T16:22:24;7.20;;;5.55;;
22754;SDS011;11544;42.020;23.094;2023-06-22T16:24:53;10.15;;;6.95;;
22754;SDS011;11544;42.020;23.094;2023-06-22T16:27:24;10.88;;;6.60;;
22754;SDS011;11544;42.020;23.094;2023-06-22T16:29:51;9.75;;;6.43;;
22754;SDS011;11544;42.020;23.094;2023-06-22T16:45:41;8.98;;;6.07;;
22754;SDS011;11544;42.020;23.094;2023-06-22T16:48:24;10.75;;;6.43;;
22754;SDS011;11544;42.020;23.094;2023-06-22T16:50:52;8.13;;;6.05;;
22754;SDS011;11544;42.020;23.094;2023-06-22T16:53:22;9.73;;;6.47;;
22754;SDS011;11544;42.020;23.094;2023-06-22T17:01:12;8.88;;;6.78;;
22754;SDS011;11544;42.020;23.094;2023-06-22T17:03:44;10.18;;;6.47;;
22754;SDS011;11544;42.020;23.094;2023-06-22T17:06:29;10.88;;;7.45;;
22754;SDS011;11544;42.020;23.094;2023-06-22T17:09:02;11.77;;;7.97;;
22754;SDS011;11544;42.020;23.094;2023-06-22T17:12:05;11.80;;;8.00;;
